Aérodrome :
LOGIN :

S'inscrire | Disclaimer

   EN    FR    IT 

 










Légende :    VFR   VFR Marginal   IFR   IFR Intensif   IFR Très Intensif
Visi : 
Plafond : 
>= 8 km
>= 3000ft
5 à 8 km
1000 à 3000 ft
1500m à 5 km
500 à 1000 ft
800 à 1500m
200 à 500 ft
< 800m
< 200 ft
Symboles :   Orages  Brouillard  Fortes neiges  Fortes précipitations  Vent > 20 kt
SIGMETs :   Divers  Orages  Givrage  Turbulence  Onde Orograph.  Cendres Volcan.






- Altitude de l'aérodrome : 238 ft
- Code IATA : FAB


EGLF - Farnborough

DERNIER METAR :
  • 190550Z AUTO 20001KT 9999 NCD M04/M05 Q1016

METARs EXPIRÉS :
  • 190520Z AUTO 00000KT 9000 NCD M04/M05 Q1016
  • 190450Z AUTO 20001KT 9999 FEW022/// M03/M04 Q1016
  • 190420Z AUTO 20001KT 9000 NCD M03/M04 Q1017
  • 190350Z AUTO 20001KT 5000 BR NCD M03/M04 Q1017
  • 190320Z AUTO 19001KT 4900 BR NCD M03/M04 Q1017
  • 190250Z AUTO 17001KT 4500 BR NCD M03/M04 Q1017

TAF TAF EGLF
Valide du 19 à 06h jusqu'au 19 à 15h UTC


190458Z 1906/1915 13005KT 9999 FEW035
TEMPO 1906/1912 4000 BR BKN002
PROB40 1906/1910 0300 FZFG VV///
PROB30 1912/1915 8000
ATIS : +44 09063 800 400 (*282)



MET'MAP, la Météo Aéronautique d'un coup d'oeil ! - Copyright ORBIFLY Décembre 2007 - Disclaimer

ORBIFLY MET'MAP TEAM :

Programmation & Développement : Alexandra Zaïnal
Conception & Développement : Baudouin d'Aumeries
Co-Programmation & Développement : Marc-Olivier Méhu
Soutien technique & logistique : Manuel Goepfert

Contact : metmap@orbifly.com




SOURCES & CREDITS :

   NOAA